Time;durP1;ratioP1;P1;durP2;ratioP2;P2;SDS_P1;SDS_P2;PMS_P1;PMS_P2;Temp;Humidity;BMP_temperature;BMP_pressure;BME280_temperature;BME280_humidity;BME280_pressure;Samples;Min_cycle;Max_cycle;Signal;HPM_P1;HPM_P2
2023/11/18 00:00:12;;;;;;;43.70;40.10;;;;;;;7.79;100.00;100279.28;5017008;28;20500;-80
2023/11/18 00:02:39;;;;;;;48.78;44.60;;;;;;;7.80;100.00;100291.47;5012485;28;20474;-79
2023/11/18 00:05:07;;;;;;;38.60;35.40;;;;;;;7.90;100.00;100283.19;5016516;28;20426;-79
2023/11/18 00:07:34;;;;;;;49.10;45.22;;;;;;;7.76;100.00;100271.75;5011413;28;20104;-79
2023/11/18 00:10:01;;;;;;;48.22;44.55;;;;;;;8.31;100.00;100272.50;5017324;28;20439;-80
2023/11/18 00:12:28;;;;;;;43.13;39.83;;;;;;;7.78;100.00;100264.44;5013292;28;20053;-80
2023/11/18 00:14:58;;;;;;;47.72;44.22;;;;;;;7.78;100.00;100269.72;5019671;28;20046;-79
2023/11/18 00:17:25;;;;;;;44.53;41.03;;;;;;;7.85;100.00;100273.19;5018414;28;20037;-75
2023/11/18 00:19:53;;;;;;;43.95;40.55;;;;;;;7.61;100.00;100285.09;5014080;28;20061;-75
2023/11/18 00:22:20;;;;;;;40.45;37.35;;;;;;;8.20;100.00;100273.91;5015424;28;20056;-78
2023/11/18 00:24:47;;;;;;;44.88;41.58;;;;;;;8.11;100.00;100272.47;5021126;28;20412;-75
2023/11/18 00:27:14;;;;;;;41.35;38.25;;;;;;;8.11;100.00;100267.19;5019845;28;20426;-80
2023/11/18 00:29:43;;;;;;;45.92;42.33;;;;;;;7.99;100.00;100261.66;5017664;28;20054;-80
2023/11/18 00:32:11;;;;;;;49.72;45.80;;;;;;;7.84;100.00;100263.66;5012676;28;20099;-80
2023/11/18 00:34:38;;;;;;;63.63;59.25;;;;;;;7.87;100.00;100265.91;5011334;28;20049;-78
2023/11/18 00:37:05;;;;;;;44.90;41.13;;;;;;;8.01;100.00;100269.38;5013440;28;20092;-80
2023/11/18 00:39:32;;;;;;;52.47;48.45;;;;;;;7.62;100.00;100270.88;5011408;28;20038;-80
2023/11/18 00:42:00;;;;;;;77.03;71.72;;;;;;;7.85;100.00;100273.19;5019437;28;20504;-79
2023/11/18 00:44:27;;;;;;;54.40;50.40;;;;;;;7.69;100.00;100282.31;5017857;28;20056;-79
2023/11/18 00:46:54;;;;;;;47.17;43.58;;;;;;;7.69;100.00;100276.22;5021717;28;20135;-79
2023/11/18 00:49:22;;;;;;;52.78;48.75;;;;;;;7.75;100.00;100275.41;5017214;28;20337;-79
2023/11/18 00:51:49;;;;;;;53.85;49.85;;;;;;;7.96;100.00;100274.47;5021342;28;20054;-80
2023/11/18 00:54:16;;;;;;;57.17;52.97;;;;;;;8.09;100.00;100263.91;5018262;28;20115;-80
2023/11/18 00:56:43;;;;;;;47.65;44.05;;;;;;;7.83;100.00;100271.75;5015232;28;20042;-80
2023/11/18 00:59:10;;;;;;;54.95;51.00;;;;;;;7.78;100.00;100265.25;5018977;28;20053;-79
2023/11/18 01:01:37;;;;;;;54.67;50.63;;;;;;;7.89;100.00;100258.56;5018414;28;20049;-80
2023/11/18 01:04:05;;;;;;;49.63;45.55;;;;;;;7.96;100.00;100266.53;5011390;28;20061;-80
2023/11/18 01:06:34;;;;;;;49.88;45.75;;;;;;;7.83;100.00;100272.56;5019139;28;20057;-81
2023/11/18 01:09:01;;;;;;;51.85;47.85;;;;;;;8.68;100.00;100275.59;5009483;28;20478;-81
2023/11/18 01:11:29;;;;;;;45.85;42.35;;;;;;;7.76;100.00;100277.84;5019353;28;20053;-80
2023/11/18 01:13:56;;;;;;;67.97;63.28;;;;;;;8.13;100.00;100264.31;5017084;28;20081;-81
2023/11/18 01:16:23;;;;;;;51.10;47.45;;;;;;;7.97;100.00;100262.88;5016205;28;20077;-81
2023/11/18 01:19:08;;;;;;;56.95;52.55;;;;;;;7.84;100.00;100268.09;5013199;28;20049;-80
2023/11/18 01:21:37;;;;;;;54.25;50.05;;;;;;;7.53;100.00;100264.13;5014347;28;20070;-81
2023/11/18 01:24:24;;;;;;;59.70;55.20;;;;;;;8.19;100.00;100266.16;5015790;28;20046;-82
2023/11/18 01:26:51;;;;;;;46.88;43.28;;;;;;;7.79;100.00;100274.81;5015704;28;20060;-75
2023/11/18 01:29:18;;;;;;;65.15;60.33;;;;;;;7.67;100.00;100281.69;5015410;28;20052;-75
2023/11/18 01:31:45;;;;;;;57.28;53.05;;;;;;;8.22;100.00;100277.16;5016893;28;20068;-80
2023/11/18 01:34:12;;;;;;;46.00;42.60;;;;;;;8.09;100.00;100273.69;5009534;28;20054;-75
2023/11/18 01:36:40;;;;;;;47.67;44.05;;;;;;;7.65;100.00;100274.94;5015979;28;20048;-74
2023/11/18 01:39:07;;;;;;;46.28;42.78;;;;;;;7.92;100.00;100258.16;5021912;28;20438;-75
2023/11/18 01:41:35;;;;;;;46.00;42.50;;;;;;;7.80;100.00;100251.81;5014819;28;20046;-76
2023/11/18 01:44:04;;;;;;;48.95;45.35;;;;;;;8.21;100.00;100246.44;5010645;28;20053;-79
2023/11/18 01:46:31;;;;;;;44.03;40.83;;;;;;;7.99;100.00;100247.63;5017432;28;20046;-81
2023/11/18 01:48:59;;;;;;;41.75;38.65;;;;;;;7.58;100.00;100243.22;5011451;28;20046;-75
2023/11/18 01:51:25;;;;;;;51.00;47.30;;;;;;;7.98;100.00;100257.38;5009050;28;20053;-75
2023/11/18 01:53:55;;;;;;;51.00;47.20;;;;;;;7.55;100.00;100259.47;5014598;28;20149;-75
2023/11/18 01:56:25;;;;;;;49.08;45.30;;;;;;;7.54;100.00;100261.31;5007108;28;20081;-75
2023/11/18 01:58:55;;;;;;;46.20;42.70;;;;;;;7.74;100.00;100263.19;5012019;28;20054;-76
2023/11/18 02:01:22;;;;;;;38.42;35.53;;;;;;;8.15;100.00;100257.81;5015116;28;20042;-75
2023/11/18 02:03:49;;;;;;;39.05;35.95;;;;;;;7.38;100.00;100266.91;5019268;28;20740;-74
2023/11/18 02:06:17;;;;;;;39.65;36.28;;;;;;;7.85;100.00;100259.97;5015131;28;20443;-75
2023/11/18 02:08:44;;;;;;;38.65;35.85;;;;;;;8.50;100.00;100257.66;5016266;28;20111;-80
2023/11/18 02:11:21;;;;;;;35.67;33.08;;;;;;;8.36;100.00;100248.88;5014835;28;20125;-75
2023/11/18 02:13:53;;;;;;;33.80;30.92;;;;;;;7.57;100.00;100226.53;5014915;28;20057;-81
2023/11/18 02:16:21;;;;;;;36.23;33.33;;;;;;;8.59;100.00;100219.38;5017031;28;20049;-80
2023/11/18 02:18:51;;;;;;;41.22;38.15;;;;;;;7.74;100.00;100215.59;5011220;28;20140;-74
2023/11/18 02:21:18;;;;;;;43.80;40.60;;;;;;;7.88;100.00;100190.03;5017684;28;20053;-76
2023/11/18 02:23:45;;;;;;;36.70;33.92;;;;;;;7.43;100.00;100194.97;5022634;28;20052;-80
2023/11/18 02:26:22;;;;;;;38.50;35.40;;;;;;;7.74;100.00;100195.28;5013386;28;20080;-75
2023/11/18 02:28:50;;;;;;;45.78;42.33;;;;;;;7.80;100.00;100186.53;5023500;28;20492;-81
2023/11/18 02:31:26;;;;;;;52.55;48.65;;;;;;;7.39;100.00;100184.00;5025054;28;20048;-80
2023/11/18 02:33:58;;;;;;;49.35;45.85;;;;;;;7.69;100.00;100199.56;5026154;28;20061;-75
2023/11/18 02:36:36;;;;;;;37.38;34.47;;;;;;;7.96;100.00;100200.44;5026092;28;20076;-75
2023/11/18 02:39:08;;;;;;;49.03;45.17;;;;;;;7.71;100.00;100205.44;5021991;28;20555;-75
2023/11/18 02:41:39;;;;;;;38.17;35.17;;;;;;;7.58;100.00;100225.53;5018446;28;20041;-74
2023/11/18 02:44:10;;;;;;;37.60;34.40;;;;;;;7.65;100.00;100227.38;5013843;28;20136;-75
2023/11/18 02:46:38;;;;;;;42.10;38.90;;;;;;;7.48;100.00;100237.50;5017259;28;20560;-75
2023/11/18 02:49:05;;;;;;;47.75;44.28;;;;;;;7.51;100.00;100245.03;5023666;28;20053;-75
2023/11/18 02:51:33;;;;;;;45.88;42.40;;;;;;;7.20;100.00;100245.47;5019684;28;20072;-74
2023/11/18 02:54:00;;;;;;;43.15;39.78;;;;;;;8.38;100.00;100249.53;5018654;28;20053;-75
2023/11/18 02:56:27;;;;;;;36.42;33.72;;;;;;;8.18;100.00;100256.59;5015189;28;20046;-75
2023/11/18 02:58:55;;;;;;;44.60;41.20;;;;;;;7.83;100.00;100254.06;5014321;28;20053;-75
2023/11/18 03:01:25;;;;;;;37.75;34.85;;;;;;;8.05;100.00;100254.75;5021024;28;20049;-75
2023/11/18 03:03:51;;;;;;;39.72;36.85;;;;;;;7.87;100.00;100265.09;5014948;28;20057;-75
2023/11/18 03:06:18;;;;;;;40.70;37.60;;;;;;;7.28;100.00;100284.94;5017518;28;20053;-75
2023/11/18 03:08:45;;;;;;;48.28;44.58;;;;;;;7.66;100.00;100290.63;5024066;28;20049;-75
2023/11/18 03:11:12;;;;;;;47.50;44.00;;;;;;;7.55;100.00;100280.63;5017014;28;20056;-75
2023/11/18 03:13:39;;;;;;;51.85;48.08;;;;;;;7.72;100.00;100281.09;5016807;28;20045;-75
2023/11/18 03:16:11;;;;;;;48.45;44.95;;;;;;;7.81;100.00;100282.56;5016794;28;20056;-76
2023/11/18 03:18:39;;;;;;;66.22;61.72;;;;;;;7.41;100.00;100273.63;5017243;28;20088;-75
2023/11/18 03:21:07;;;;;;;75.88;71.22;;;;;;;7.80;100.00;100268.50;5016882;28;20498;-75
2023/11/18 03:23:34;;;;;;;42.55;39.58;;;;;;;7.87;100.00;100263.25;5016946;28;20072;-75
2023/11/18 03:26:01;;;;;;;48.83;45.22;;;;;;;7.71;100.00;100263.59;5019819;28;20057;-75
2023/11/18 03:28:28;;;;;;;45.72;42.13;;;;;;;7.33;100.00;100275.44;5016686;28;20496;-75
2023/11/18 03:30:55;;;;;;;46.55;42.95;;;;;;;6.95;100.00;100274.97;5022316;28;20056;-75
2023/11/18 03:33:25;;;;;;;39.92;36.63;;;;;;;7.20;100.00;100277.16;5019388;28;20128;-74
2023/11/18 03:35:55;;;;;;;37.45;34.40;;;;;;;7.13;100.00;100277.13;5017493;28;20144;-75
2023/11/18 03:38:21;;;;;;;37.58;34.67;;;;;;;8.51;100.00;100269.91;5022798;28;20144;-75
2023/11/18 03:40:48;;;;;;;38.53;35.42;;;;;;;7.43;100.00;100269.78;5020023;28;20500;-75
2023/11/18 03:43:15;;;;;;;33.17;30.58;;;;;;;7.39;100.00;100273.84;5019311;28;20049;-74
2023/11/18 03:45:43;;;;;;;42.35;39.22;;;;;;;7.06;100.00;100263.06;5015968;28;20533;-75
2023/11/18 03:48:14;;;;;;;46.95;43.63;;;;;;;7.49;100.00;100253.13;5020379;28;20037;-74
2023/11/18 03:50:44;;;;;;;41.88;38.67;;;;;;;7.33;100.00;100256.94;5013474;28;20113;-75
2023/11/18 03:53:12;;;;;;;38.95;36.00;;;;;;;7.23;100.00;100260.94;5014551;28;20094;-75
2023/11/18 03:55:38;;;;;;;36.47;33.47;;;;;;;7.17;100.00;100262.53;5019585;28;20444;-75
2023/11/18 03:58:05;;;;;;;41.63;38.30;;;;;;;7.49;100.00;100250.50;5013370;28;20046;-75
2023/11/18 04:00:32;;;;;;;40.78;37.78;;;;;;;7.24;100.00;100249.38;5018067;28;20049;-75
2023/11/18 04:02:59;;;;;;;36.40;33.60;;;;;;;7.46;100.00;100242.97;5018040;28;20061;-75
2023/11/18 04:05:29;;;;;;;34.63;31.85;;;;;;;7.28;100.00;100255.88;5013319;28;20056;-75
2023/11/18 04:07:57;;;;;;;47.38;43.92;;;;;;;7.40;100.00;100249.03;5018524;28;20096;-75
2023/11/18 04:10:25;;;;;;;42.92;39.83;;;;;;;7.50;100.00;100262.72;5016225;28;20132;-74
2023/11/18 04:12:51;;;;;;;41.92;39.03;;;;;;;7.42;100.00;100257.59;5013788;28;20077;-75
2023/11/18 04:15:18;;;;;;;51.15;47.80;;;;;;;7.67;100.00;100247.31;5007479;28;20436;-75
2023/11/18 04:17:45;;;;;;;55.40;51.70;;;;;;;7.51;100.00;100258.25;5012940;28;20072;-75
2023/11/18 04:20:15;;;;;;;58.90;55.08;;;;;;;7.84;100.00;100258.38;5016637;28;20041;-75
2023/11/18 04:22:42;;;;;;;47.90;44.80;;;;;;;7.89;100.00;100252.47;5020426;28;20046;-75
2023/11/18 04:25:12;;;;;;;37.65;35.15;;;;;;;7.01;100.00;100260.19;5021378;28;20132;-74
2023/11/18 04:27:39;;;;;;;42.15;39.15;;;;;;;8.12;100.00;100260.06;5015154;28;20065;-82
2023/11/18 04:30:08;;;;;;;38.88;36.53;;;;;;;7.57;100.00;100247.69;5013737;28;20054;-82
2023/11/18 04:32:35;;;;;;;49.88;46.95;;;;;;;7.08;100.00;100255.75;5021014;28;20133;-82
2023/11/18 04:35:08;;;;;;;42.65;39.95;;;;;;;6.90;100.00;100258.91;5020815;28;20048;-82
2023/11/18 04:37:35;;;;;;;43.88;40.88;;;;;;;7.35;100.00;100232.94;5016473;28;20054;-74
2023/11/18 04:40:09;;;;;;;46.15;43.35;;;;;;;8.47;100.00;100236.91;5022902;28;20056;-81
2023/11/18 04:42:39;;;;;;;42.05;39.45;;;;;;;7.41;100.00;100232.16;5016350;28;20050;-81
2023/11/18 04:45:07;;;;;;;43.30;40.90;;;;;;;7.25;100.00;100258.91;5015628;28;20057;-81
2023/11/18 04:47:34;;;;;;;35.22;33.13;;;;;;;6.99;100.00;100252.47;5018250;28;20049;-82
2023/11/18 04:50:00;;;;;;;38.63;36.42;;;;;;;6.83;100.00;100245.66;5018340;28;20064;-81
2023/11/18 04:52:27;;;;;;;41.35;38.95;;;;;;;7.79;100.00;100234.34;5016551;28;20431;-83
2023/11/18 04:54:57;;;;;;;30.48;28.40;;;;;;;6.21;100.00;100241.09;5018204;28;20046;-81
2023/11/18 04:57:24;;;;;;;31.15;29.15;;;;;;;6.78;100.00;100241.97;5017404;28;20045;-82
2023/11/18 04:59:52;;;;;;;28.30;26.40;;;;;;;6.97;100.00;100251.03;5014682;28;20053;-81
2023/11/18 05:02:19;;;;;;;25.38;23.58;;;;;;;7.10;100.00;100241.34;5022629;28;20045;-82
2023/11/18 05:04:46;;;;;;;31.60;29.60;;;;;;;7.29;100.00;100239.84;5017901;28;20062;-80
2023/11/18 05:07:13;;;;;;;32.88;30.77;;;;;;;9.25;100.00;100252.09;5017555;28;20049;-82
2023/11/18 05:09:40;;;;;;;33.22;31.23;;;;;;;7.34;100.00;100250.63;5014338;28;20116;-74
2023/11/18 05:12:08;;;;;;;38.15;35.85;;;;;;;7.07;100.00;100247.03;5023335;28;20412;-80
2023/11/18 05:14:35;;;;;;;39.58;37.17;;;;;;;6.37;100.00;100266.41;5016317;28;20538;-74
2023/11/18 05:17:04;;;;;;;32.60;30.48;;;;;;;6.22;100.00;100263.03;5014504;28;20490;-75
2023/11/18 05:19:31;;;;;;;29.65;27.75;;;;;;;5.76;100.00;100258.84;5012253;28;20046;-74
2023/11/18 05:21:59;;;;;;;32.85;30.65;;;;;;;6.84;100.00;100270.25;5015058;28;20060;-75
2023/11/18 05:24:29;;;;;;;35.03;32.83;;;;;;;6.27;100.00;100268.56;5020999;28;20057;-74
2023/11/18 05:26:56;;;;;;;34.10;32.00;;;;;;;6.24;100.00;100275.00;5018690;28;20053;-75
2023/11/18 05:29:23;;;;;;;27.52;25.73;;;;;;;5.83;100.00;100275.56;5022576;28;20049;-75
2023/11/18 05:31:52;;;;;;;25.38;23.77;;;;;;;6.59;100.00;100264.56;5016095;28;20057;-74
2023/11/18 05:34:21;;;;;;;27.13;25.33;;;;;;;6.62;100.00;100256.25;5016417;28;20041;-75
2023/11/18 05:37:00;;;;;;;30.42;28.52;;;;;;;5.61;100.00;100258.88;5018060;28;20045;-74
2023/11/18 05:39:30;;;;;;;28.00;26.40;;;;;;;5.89;100.00;100247.63;5015882;28;20045;-74
2023/11/18 05:41:58;;;;;;;24.38;22.77;;;;;;;5.80;100.00;100248.75;5013683;28;20045;-81
2023/11/18 05:44:30;;;;;;;26.23;24.63;;;;;;;5.39;100.00;100250.13;5007429;28;20053;-81
2023/11/18 05:46:57;;;;;;;23.08;21.58;;;;;;;6.54;100.00;100251.13;5016680;28;20736;-82
2023/11/18 05:49:31;;;;;;;22.42;21.02;;;;;;;5.98;100.00;100254.47;5016356;28;20416;-81
2023/11/18 05:51:58;;;;;;;27.02;25.30;;;;;;;6.27;100.00;100269.38;5015492;28;20152;-81
2023/11/18 05:54:25;;;;;;;24.40;22.90;;;;;;;6.48;100.00;100280.91;5017828;28;20145;-81
2023/11/18 05:56:53;;;;;;;22.20;20.70;;;;;;;5.57;100.00;100294.50;5021189;28;20064;-80
2023/11/18 05:59:21;;;;;;;24.92;23.23;;;;;;;6.01;100.00;100304.19;5020233;28;20041;-81
2023/11/18 06:01:48;;;;;;;23.80;22.20;;;;;;;5.67;100.00;100313.47;5020826;28;20084;-81
2023/11/18 06:04:15;;;;;;;22.40;20.98;;;;;;;5.62;100.00;100307.13;5019749;28;20053;-81
2023/11/18 06:06:43;;;;;;;23.30;21.80;;;;;;;6.08;100.00;100297.19;5020917;28;20410;-81
2023/11/18 06:09:17;;;;;;;23.45;21.95;;;;;;;5.89;100.00;100297.72;5020891;28;20045;-80
2023/11/18 06:11:45;;;;;;;25.00;23.30;;;;;;;5.90;100.00;100294.06;5022006;28;20061;-80
2023/11/18 06:14:12;;;;;;;26.13;24.52;;;;;;;6.14;100.00;100285.03;5014926;28;20050;-82
2023/11/18 06:16:40;;;;;;;26.02;24.33;;;;;;;6.16;100.00;100275.94;5013961;28;20042;-82
2023/11/18 06:19:07;;;;;;;23.50;22.00;;;;;;;6.43;100.00;100258.53;5014204;28;20100;-82
2023/11/18 06:21:36;;;;;;;22.60;21.15;;;;;;;5.92;100.00;100258.63;5025712;28;20053;-81
2023/11/18 06:24:05;;;;;;;23.85;22.35;;;;;;;6.28;100.00;100264.91;5013667;28;20046;-83
2023/11/18 06:26:35;;;;;;;25.35;23.65;;;;;;;5.72;100.00;100276.06;5014348;28;20056;-80
2023/11/18 06:29:03;;;;;;;22.63;21.13;;;;;;;6.80;100.00;100277.72;5009952;28;20073;-81
2023/11/18 06:31:30;;;;;;;20.65;19.25;;;;;;;6.58;100.00;100284.84;5017502;28;20046;-82
2023/11/18 06:33:57;;;;;;;22.10;20.60;;;;;;;7.09;100.00;100289.91;5011411;28;20050;-81
2023/11/18 06:36:26;;;;;;;21.98;20.48;;;;;;;6.77;100.00;100301.84;5016949;28;20054;-81
2023/11/18 06:38:56;;;;;;;22.00;20.60;;;;;;;6.43;100.00;100298.13;5023409;28;20049;-82
2023/11/18 06:41:33;;;;;;;23.10;21.60;;;;;;;5.56;100.00;100310.50;5023706;28;20529;-81
2023/11/18 06:44:02;;;;;;;23.25;21.75;;;;;;;5.90;100.00;100313.38;5018576;28;20966;-80
2023/11/18 06:46:33;;;;;;;22.40;20.90;;;;;;;7.41;100.00;100311.44;5011560;28;20052;-81
2023/11/18 06:49:03;;;;;;;21.50;20.00;;;;;;;5.43;100.00;100305.88;5014754;28;20050;-82
2023/11/18 06:51:32;;;;;;;20.35;19.05;;;;;;;8.19;100.00;100304.00;5020766;28;20066;-81
2023/11/18 06:53:59;;;;;;;20.48;19.17;;;;;;;5.66;100.00;100300.50;5019897;28;20069;-75
2023/11/18 06:56:28;;;;;;;21.30;20.00;;;;;;;5.94;100.00;100296.19;5021701;28;20045;-74
2023/11/18 06:58:55;;;;;;;21.77;20.38;;;;;;;6.25;100.00;100291.66;5008101;28;20048;-74
2023/11/18 07:01:22;;;;;;;24.83;23.13;;;;;;;8.21;100.00;100285.31;5018427;28;20039;-74
2023/11/18 07:03:52;;;;;;;23.52;22.05;;;;;;;5.11;100.00;100292.03;5017435;28;20081;-75
2023/11/18 07:06:22;;;;;;;23.38;21.88;;;;;;;7.70;100.00;100285.75;5018431;28;20048;-74
2023/11/18 07:08:49;;;;;;;24.80;23.30;;;;;;;5.92;100.00;100284.16;5018251;28;20054;-75
2023/11/18 07:11:16;;;;;;;23.35;21.85;;;;;;;6.76;100.00;100279.13;5023589;28;20061;-75
2023/11/18 07:13:45;;;;;;;25.15;23.55;;;;;;;5.70;100.00;100281.50;5022319;28;20042;-75
2023/11/18 07:16:12;;;;;;;24.52;23.02;;;;;;;7.69;100.00;100290.22;5012101;28;20127;-75
2023/11/18 07:18:39;;;;;;;22.13;20.83;;;;;;;6.38;100.00;100268.03;5020016;28;20048;-74
2023/11/18 07:21:06;;;;;;;23.70;22.30;;;;;;;6.95;100.00;100266.25;5020259;28;20053;-75
2023/11/18 07:23:33;;;;;;;25.92;24.42;;;;;;;6.16;100.00;100280.41;5018531;28;20045;-75
2023/11/18 07:26:01;;;;;;;23.20;21.70;;;;;;;7.06;100.00;100277.09;5026167;28;20042;-74
2023/11/18 07:28:28;;;;;;;24.35;22.85;;;;;;;5.61;100.00;100277.31;5015530;28;20042;-75
2023/11/18 07:30:57;;;;;;;22.42;21.02;;;;;;;5.40;100.00;100285.16;5017155;28;20050;-75
2023/11/18 07:33:25;;;;;;;21.38;20.08;;;;;;;5.62;100.00;100273.69;5015315;28;20129;-75
2023/11/18 07:35:52;;;;;;;20.85;19.55;;;;;;;4.92;100.00;100277.59;5015215;28;20068;-74
2023/11/18 07:38:20;;;;;;;21.45;20.05;;;;;;;6.06;100.00;100277.28;5017584;28;20049;-75
2023/11/18 07:40:47;;;;;;;20.75;19.45;;;;;;;5.83;100.00;100272.91;5016340;28;20507;-75
2023/11/18 07:43:15;;;;;;;21.10;19.70;;;;;;;5.71;100.00;100264.66;5017264;28;20046;-75
2023/11/18 07:45:44;;;;;;;20.00;18.80;;;;;;;7.01;100.00;100268.13;5014051;28;20045;-75
2023/11/18 07:48:14;;;;;;;19.67;18.58;;;;;;;5.37;100.00;100253.94;5017199;28;20041;-74
2023/11/18 07:50:41;;;;;;;20.23;19.02;;;;;;;6.72;100.00;100248.84;5011133;28;20928;-74
2023/11/18 07:53:13;;;;;;;19.42;18.33;;;;;;;9.50;100.00;100238.94;5016823;28;20050;-75
2023/11/18 07:55:40;;;;;;;18.13;17.02;;;;;;;7.06;100.00;100247.22;5019503;28;20049;-82
2023/11/18 07:58:10;;;;;;;18.52;17.42;;;;;;;5.88;100.00;100256.56;5011427;28;20046;-81
2023/11/18 08:00:38;;;;;;;19.15;18.05;;;;;;;6.41;100.00;100252.66;5015614;28;20072;-81
2023/11/18 08:03:07;;;;;;;18.17;17.17;;;;;;;6.21;100.00;100249.03;5014753;28;20061;-81
2023/11/18 08:05:35;;;;;;;20.40;19.20;;;;;;;6.45;100.00;100260.19;5011702;28;20859;-81
2023/11/18 08:08:03;;;;;;;20.55;19.35;;;;;;;7.28;100.00;100263.81;5013539;28;20046;-81
2023/11/18 08:10:32;;;;;;;20.05;18.85;;;;;;;6.89;100.00;100254.63;5015082;28;20699;-82
2023/11/18 08:12:59;;;;;;;19.73;18.52;;;;;;;6.20;100.00;100252.63;5014699;28;20127;-74
2023/11/18 08:15:31;;;;;;;21.02;19.75;;;;;;;7.66;100.00;100234.31;5021968;28;20045;-75
2023/11/18 08:17:57;;;;;;;18.80;17.60;;;;;;;7.28;100.00;100250.59;5018284;28;20045;-82
2023/11/18 08:20:25;;;;;;;20.15;18.95;;;;;;;8.94;100.00;100250.94;5012213;28;20423;-83
2023/11/18 08:22:55;;;;;;;22.00;20.70;;;;;;;7.86;100.00;100240.44;5017980;28;20660;-82
2023/11/18 08:25:22;;;;;;;22.17;20.77;;;;;;;9.11;100.00;100238.06;5011845;28;20084;-82
2023/11/18 08:27:49;;;;;;;20.50;19.20;;;;;;;9.16;100.00;100244.34;5020478;28;20081;-75
2023/11/18 08:30:20;;;;;;;19.70;18.50;;;;;;;7.22;100.00;100254.03;5013745;28;20052;-75
2023/11/18 08:32:48;;;;;;;18.65;17.55;;;;;;;8.80;100.00;100259.91;5009810;28;20529;-74
2023/11/18 08:35:15;;;;;;;19.23;18.02;;;;;;;8.92;100.00;100260.91;5014320;28;20046;-75
2023/11/18 08:37:45;;;;;;;18.75;17.55;;;;;;;5.85;100.00;100278.84;5013120;28;20070;-75
2023/11/18 08:40:16;;;;;;;20.50;19.30;;;;;;;7.90;100.00;100272.63;5008637;28;20518;-75
2023/11/18 08:42:47;;;;;;;20.95;19.70;;;;;;;5.76;100.00;100290.47;5014389;28;20120;-74
2023/11/18 08:45:16;;;;;;;19.50;18.33;;;;;;;5.78;100.00;100290.28;5005920;28;20049;-80
2023/11/18 08:47:45;;;;;;;21.30;19.90;;;;;;;6.54;100.00;100288.09;5013321;28;20300;-82
2023/11/18 08:50:14;;;;;;;22.02;20.73;;;;;;;5.72;100.00;100282.13;5015046;28;20526;-82
2023/11/18 08:52:43;;;;;;;23.75;22.35;;;;;;;7.26;100.00;100294.88;5021843;28;20050;-82
2023/11/18 08:55:17;;;;;;;20.60;19.30;;;;;;;7.01;100.00;100287.41;5010416;28;20052;-81
2023/11/18 08:57:58;;;;;;;20.67;19.48;;;;;;;8.02;100.00;100285.06;5012774;28;20045;-75
2023/11/18 09:00:46;;;;;;;23.75;22.35;;;;;;;6.14;100.00;100262.16;5019799;28;20558;-75
2023/11/18 09:03:42;;;;;;;23.63;21.98;;;;;;;8.19;100.00;100250.28;5013640;28;20049;-74
2023/11/18 09:06:17;;;;;;;21.77;20.48;;;;;;;8.64;100.00;100240.78;4994199;28;20049;-75
2023/11/18 09:08:44;;;;;;;23.92;22.42;;;;;;;6.52;100.00;100235.47;5019831;28;20518;-75
2023/11/18 09:11:14;;;;;;;22.13;20.83;;;;;;;8.86;100.00;100230.75;5023454;28;20042;-74
2023/11/18 09:13:44;;;;;;;21.17;19.88;;;;;;;9.38;100.00;100231.66;5016123;28;20137;-75
2023/11/18 09:16:12;;;;;;;21.45;20.25;;;;;;;9.77;100.00;100235.16;5018992;28;20046;-75
2023/11/18 09:18:41;;;;;;;20.30;19.10;;;;;;;7.54;100.00;100240.16;5010365;28;20511;-75
2023/11/18 09:21:14;;;;;;;20.88;19.67;;;;;;;6.29;100.00;100256.78;5018135;28;20498;-74
2023/11/18 09:23:41;;;;;;;;;;;;;;;8.01;100.00;100250.88;5016915;28;20491;-75
2023/11/18 09:26:08;;;;;;;16.90;15.90;;;;;;;6.15;100.00;100258.50;5013871;28;20361;-75
2023/11/18 09:28:37;;;;;;;17.63;16.63;;;;;;;7.69;100.00;100253.22;5012167;28;20153;-75
2023/11/18 09:31:05;;;;;;;18.38;17.27;;;;;;;7.14;100.00;100254.16;5020370;28;20053;-81
2023/11/18 09:33:33;;;;;;;18.20;17.10;;;;;;;6.82;100.00;100253.78;5015648;28;20049;-82
2023/11/18 09:36:01;;;;;;;18.02;16.92;;;;;;;8.33;100.00;100264.34;5019833;28;20042;-81
2023/11/18 09:38:29;;;;;;;21.38;20.17;;;;;;;7.54;100.00;100273.72;5015872;28;20120;-80
2023/11/18 09:40:56;;;;;;;19.77;18.60;;;;;;;7.31;100.00;100264.22;5012522;28;20065;-81
2023/11/18 09:43:26;;;;;;;19.80;18.70;;;;;;;8.27;100.00;100261.50;5010863;28;20042;-81
2023/11/18 09:45:56;;;;;;;18.27;17.17;;;;;;;6.74;100.00;100260.00;5016185;28;20887;-81
2023/11/18 09:48:26;;;;;;;19.27;18.17;;;;;;;6.24;100.00;100253.91;5015143;28;20057;-82
2023/11/18 09:50:54;;;;;;;20.38;19.08;;;;;;;5.76;100.00;100261.50;5011616;28;20057;-80
2023/11/18 09:53:25;;;;;;;20.42;19.33;;;;;;;6.85;100.00;100256.84;5024100;28;20046;-81
2023/11/18 09:56:01;;;;;;;20.70;19.50;;;;;;;7.48;100.00;100253.34;5012700;28;20056;-81
2023/11/18 09:58:41;;;;;;;20.35;19.15;;;;;;;7.01;100.00;100239.06;5013664;28;20045;-82
2023/11/18 10:01:18;;;;;;;20.05;18.95;;;;;;;7.21;100.00;100241.84;5017061;28;20467;-81
2023/11/18 10:03:45;;;;;;;20.30;19.10;;;;;;;6.45;100.00;100236.44;5013622;28;20136;-82
2023/11/18 10:06:14;;;;;;;20.23;19.13;;;;;;;6.74;100.00;100243.34;5013075;28;20068;-81
2023/11/18 10:08:45;;;;;;;22.10;20.70;;;;;;;7.74;100.00;100237.56;5014109;28;20588;-81
2023/11/18 10:11:13;;;;;;;20.27;19.17;;;;;;;7.48;100.00;100242.78;5016143;28;20088;-82
2023/11/18 10:13:40;;;;;;;21.20;20.00;;;;;;;6.96;100.00;100241.47;5009439;28;20053;-81
2023/11/18 10:16:09;;;;;;;20.42;19.33;;;;;;;7.77;100.00;100225.78;5010282;28;20057;-81
2023/11/18 10:18:48;;;;;;;22.20;20.92;;;;;;;7.23;100.00;100229.22;5013352;28;20495;-81
2023/11/18 10:21:18;;;;;;;21.45;20.15;;;;;;;8.15;100.00;100218.13;5018978;28;20103;-81
2023/11/18 10:24:00;;;;;;;20.30;19.10;;;;;;;7.37;100.00;100230.94;5008386;28;20041;-84
2023/11/18 10:26:28;;;;;;;19.48;18.38;;;;;;;7.94;100.00;100229.69;5009196;28;20054;-81
2023/11/18 10:28:55;;;;;;;21.42;20.23;;;;;;;7.35;100.00;100227.66;5012879;28;20567;-81
2023/11/18 10:31:24;;;;;;;20.95;19.75;;;;;;;7.04;100.00;100225.47;5013076;28;20049;-81
2023/11/18 10:33:52;;;;;;;21.60;20.40;;;;;;;7.28;100.00;100230.28;5009364;28;20064;-81
2023/11/18 10:36:22;;;;;;;26.05;24.02;;;;;;;9.22;100.00;100223.34;5010757;28;20077;-81
2023/11/18 10:39:00;;;;;;;34.30;31.50;;;;;;;7.27;100.00;100228.66;5018011;28;20575;-81
2023/11/18 10:41:27;;;;;;;19.50;18.40;;;;;;;7.04;100.00;100225.47;5020366;28;20139;-80
2023/11/18 10:44:15;;;;;;;21.63;20.42;;;;;;;7.01;100.00;100216.13;5014505;28;20050;-81
2023/11/18 10:46:52;;;;;;;20.50;19.30;;;;;;;6.83;100.00;100219.25;5013771;28;20042;-82
2023/11/18 10:49:21;;;;;;;22.60;21.30;;;;;;;7.46;100.00;100216.53;5022638;28;20049;-83
2023/11/18 10:51:50;;;;;;;19.70;18.50;;;;;;;6.38;100.00;100225.81;5020444;28;20052;-75
2023/11/18 10:54:19;;;;;;;20.10;18.90;;;;;;;6.53;100.00;100234.47;5018442;28;20054;-75
2023/11/18 10:56:50;;;;;;;20.27;19.08;;;;;;;7.16;100.00;100223.91;5017037;28;20050;-75
2023/11/18 10:59:18;;;;;;;20.98;19.77;;;;;;;6.87;100.00;100220.50;5022978;28;20060;-75
2023/11/18 11:01:48;;;;;;;20.70;19.50;;;;;;;7.31;100.00;100223.78;5021501;28;20526;-75
2023/11/18 11:04:20;;;;;;;21.98;20.77;;;;;;;7.03;100.00;100219.38;5024356;28;20080;-74
2023/11/18 11:06:59;;;;;;;22.35;21.13;;;;;;;6.75;100.00;100213.34;5014071;28;20080;-75
2023/11/18 11:09:28;;;;;;;23.15;21.85;;;;;;;6.91;100.00;100218.31;5018760;28;20143;-74
2023/11/18 11:12:04;;;;;;;18.83;16.00;;;;;;;7.42;100.00;100220.59;5019909;28;20130;-75
2023/11/18 11:14:36;;;;;;;21.40;19.80;;;;;;;6.92;100.00;100227.03;5020352;28;20092;-81
2023/11/18 11:17:14;;;;;;;18.25;16.45;;;;;;;6.93;100.00;100218.09;5018474;28;20076;-75